Time;durP1;ratioP1;P1;durP2;ratioP2;P2;SDS_P1;SDS_P2;PMS_P1;PMS_P2;Temp;Humidity;BMP_temperature;BMP_pressure;BME280_temperature;BME280_humidity;BME280_pressure;Samples;Min_cycle;Max_cycle;Signal;HPM_P1;HPM_P2
2021/05/07 00:00:32;;;;;;;4.93;2.40;;;4.70;97.00;;;;;;5115541;28;20042;-70
2021/05/07 00:02:57;;;;;;;3.28;1.83;;;4.70;97.10;;;;;;5115642;27;20492;-70
2021/05/07 00:05:23;;;;;;;2.22;1.80;;;4.70;96.80;;;;;;5114913;28;20471;-70
2021/05/07 00:07:49;;;;;;;4.28;2.08;;;4.70;96.80;;;;;;5115247;28;20073;-70
2021/05/07 00:10:15;;;;;;;4.43;2.03;;;4.60;96.70;;;;;;5114904;28;20071;-70
2021/05/07 00:12:42;;;;;;;3.00;2.10;;;4.60;96.60;;;;;;5114950;28;20398;-70
2021/05/07 00:15:09;;;;;;;2.45;2.10;;;4.60;96.70;;;;;;5114585;28;20073;-70
2021/05/07 00:17:35;;;;;;;5.40;2.30;;;4.60;96.80;;;;;;5114942;28;20055;-70
2021/05/07 00:20:00;;;;;;;2.85;2.58;;;4.60;96.80;;;;;;5115562;27;20373;-70
2021/05/07 00:22:26;;;;;;;3.40;2.47;;;4.60;96.80;;;;;;5114749;28;20122;-70
2021/05/07 00:24:54;;;;;;;4.90;2.30;;;4.60;96.70;;;;;;5114601;28;20059;-70
2021/05/07 00:27:20;;;;;;;2.80;2.20;;;4.60;96.80;;;;;;5114600;28;20039;-70
2021/05/07 00:29:46;;;;;;;3.65;2.42;;;4.70;96.80;;;;;;5114672;28;20118;-70
2021/05/07 00:32:13;;;;;;;5.00;2.97;;;4.70;96.60;;;;;;5114944;28;20103;-70
2021/05/07 00:34:38;;;;;;;3.72;2.30;;;4.50;96.60;;;;;;5114401;28;20038;-70
2021/05/07 00:37:04;;;;;;;3.72;2.50;;;4.50;96.70;;;;;;5114907;28;20031;-70
2021/05/07 00:39:30;;;;;;;3.00;2.40;;;4.60;96.90;;;;;;5114820;28;20059;-70
2021/05/07 00:42:03;;;;;;;2.92;2.72;;;4.60;96.90;;;;;;5114891;28;20480;-70
2021/05/07 00:44:32;;;;;;;7.10;2.53;;;4.60;96.90;;;;;;5114155;28;20040;-70
2021/05/07 00:47:04;;;;;;;4.07;2.60;;;4.60;96.90;;;;;;5113604;28;20055;-70
2021/05/07 00:49:32;;;;;;;4.20;2.85;;;4.60;96.90;;;;;;5114258;28;20043;-70
2021/05/07 00:51:57;;;;;;;3.55;2.58;;;4.60;97.00;;;;;;5114260;28;20039;-70
2021/05/07 00:54:23;;;;;;;3.67;2.40;;;4.70;97.00;;;;;;5114428;28;20038;-70
2021/05/07 00:56:49;;;;;;;5.53;2.63;;;4.70;96.90;;;;;;5114475;28;20042;-70
2021/05/07 00:59:15;;;;;;;3.95;2.67;;;4.70;96.90;;;;;;5114047;28;20043;-70
2021/05/07 01:01:41;;;;;;;3.47;2.58;;;4.70;97.10;;;;;;5114735;28;20044;-70
2021/05/07 01:04:06;;;;;;;4.43;2.60;;;4.70;97.20;;;;;;5114778;28;20050;-70
2021/05/07 01:06:32;;;;;;;6.70;3.20;;;4.70;97.30;;;;;;5113899;28;20044;-70
2021/05/07 01:08:58;;;;;;;5.78;3.22;;;4.70;97.00;;;;;;5114167;27;20036;-70
2021/05/07 01:11:24;;;;;;;3.80;2.95;;;4.70;97.10;;;;;;5114266;28;20035;-70
2021/05/07 01:13:49;;;;;;;3.85;2.90;;;4.70;97.20;;;;;;5114517;28;20433;-70
2021/05/07 01:16:15;;;;;;;6.13;3.55;;;4.70;97.10;;;;;;5113601;28;20027;-70
2021/05/07 01:18:41;;;;;;;3.85;2.90;;;4.60;97.20;;;;;;5113846;28;20032;-70
2021/05/07 01:21:07;;;;;;;4.78;3.08;;;4.60;97.20;;;;;;5113834;28;20058;-70
2021/05/07 01:23:32;;;;;;;4.10;3.17;;;4.60;97.20;;;;;;5114053;28;20157;-70
2021/05/07 01:25:59;;;;;;;3.42;2.85;;;4.50;97.10;;;;;;5113784;28;20064;-70
2021/05/07 01:28:24;;;;;;;5.32;3.35;;;4.50;97.10;;;;;;5114314;28;20448;-70
2021/05/07 01:30:50;;;;;;;4.82;2.95;;;4.50;97.10;;;;;;5114402;28;20039;-70
2021/05/07 01:33:17;;;;;;;7.05;3.63;;;4.40;97.00;;;;;;5114093;28;20046;-70
2021/05/07 01:35:44;;;;;;;4.78;3.40;;;4.50;97.10;;;;;;5113482;28;20036;-70
2021/05/07 01:38:13;;;;;;;3.97;3.15;;;4.40;97.00;;;;;;5113640;28;20082;-70
2021/05/07 01:40:45;;;;;;;6.00;3.78;;;4.40;97.30;;;;;;5114143;28;20044;-70
2021/05/07 01:43:11;;;;;;;6.63;3.42;;;4.40;97.00;;;;;;5113885;28;20039;-70
2021/05/07 01:45:39;;;;;;;3.63;2.95;;;4.40;97.10;;;;;;5113580;28;20076;-70
2021/05/07 01:48:08;;;;;;;3.80;3.20;;;4.40;96.90;;;;;;5113459;28;20453;-70
2021/05/07 01:50:38;;;;;;;4.20;3.35;;;4.30;96.90;;;;;;5113685;28;20061;-70
2021/05/07 01:53:05;;;;;;;6.43;3.00;;;4.30;96.90;;;;;;5113486;28;20039;-70
2021/05/07 01:55:34;;;;;;;4.63;3.95;;;4.20;97.00;;;;;;5113152;28;20368;-69
2021/05/07 01:58:01;;;;;;;4.85;3.55;;;4.20;97.00;;;;;;5114382;28;20036;-70
2021/05/07 02:00:28;;;;;;;4.57;3.70;;;4.10;97.10;;;;;;5117710;28;20048;-70
2021/05/07 02:02:55;;;;;;;7.05;4.10;;;4.10;97.40;;;;;;5117524;28;20494;-70
2021/05/07 02:05:22;;;;;;;6.57;4.35;;;4.10;97.50;;;;;;5117429;28;20475;-70
2021/05/07 02:07:49;;;;;;;6.10;4.70;;;4.20;98.20;;;;;;5117255;28;20037;-70
2021/05/07 02:10:18;;;;;;;9.52;5.85;;;4.20;98.00;;;;;;5117280;27;20031;-70
2021/05/07 02:12:44;;;;;;;8.05;6.22;;;4.20;98.00;;;;;;5116781;28;20131;-70
2021/05/07 02:15:13;;;;;;;8.02;6.40;;;4.30;98.10;;;;;;5117574;28;20040;-70
2021/05/07 02:17:39;;;;;;;7.18;5.75;;;4.30;98.10;;;;;;5117407;28;20161;-70
2021/05/07 02:20:07;;;;;;;9.07;6.55;;;4.30;98.20;;;;;;5117847;28;20045;-70
2021/05/07 02:22:33;;;;;;;11.52;6.38;;;4.30;98.20;;;;;;5117091;28;20063;-70
2021/05/07 02:24:59;;;;;;;8.93;6.00;;;4.30;98.30;;;;;;5117203;28;20113;-70
2021/05/07 02:27:27;;;;;;;8.70;6.57;;;4.30;98.20;;;;;;5117156;28;20066;-70
2021/05/07 02:29:53;;;;;;;11.52;6.25;;;4.30;98.20;;;;;;5117277;28;20472;-70
2021/05/07 02:32:18;;;;;;;7.05;6.30;;;4.20;98.20;;;;;;5117205;28;20036;-70
2021/05/07 02:34:44;;;;;;;9.65;5.85;;;4.30;98.30;;;;;;5116947;28;20092;-70
2021/05/07 02:37:10;;;;;;;6.47;5.78;;;4.20;98.10;;;;;;5116771;28;20118;-70
2021/05/07 02:39:35;;;;;;;9.57;5.97;;;4.30;98.10;;;;;;5117627;27;20430;-70
2021/05/07 02:42:02;;;;;;;8.27;5.53;;;4.20;98.00;;;;;;5117444;28;20040;-70
2021/05/07 02:44:27;;;;;;;6.15;5.53;;;4.20;97.90;;;;;;5116512;27;20452;-70
2021/05/07 02:46:53;;;;;;;6.57;5.43;;;4.20;98.10;;;;;;5116786;28;20039;-70
2021/05/07 02:49:19;;;;;;;5.53;5.00;;;4.10;98.00;;;;;;5117004;27;20108;-70
2021/05/07 02:51:45;;;;;;;7.30;5.63;;;4.10;98.00;;;;;;5117042;28;20430;-70
2021/05/07 02:54:10;;;;;;;7.20;5.43;;;4.10;98.00;;;;;;5116757;28;20032;-70
2021/05/07 02:56:36;;;;;;;7.57;5.60;;;4.20;98.10;;;;;;5116629;28;20032;-70
2021/05/07 02:59:02;;;;;;;6.03;4.72;;;4.10;98.10;;;;;;5116438;28;20035;-70
2021/05/07 03:01:28;;;;;;;6.15;4.78;;;4.20;98.20;;;;;;5116828;28;20039;-70
2021/05/07 03:03:53;;;;;;;6.68;5.03;;;4.20;98.30;;;;;;5116736;28;20042;-70
2021/05/07 03:06:19;;;;;;;5.78;4.47;;;4.20;98.20;;;;;;5116237;28;20042;-70
2021/05/07 03:08:45;;;;;;;5.25;4.75;;;4.20;98.10;;;;;;5116904;28;20130;-70
2021/05/07 03:11:10;;;;;;;5.93;4.00;;;4.20;98.20;;;;;;5115353;28;20075;-70
2021/05/07 03:13:36;;;;;;;5.20;4.47;;;4.30;98.20;;;;;;5116748;28;20085;-70
2021/05/07 03:16:03;;;;;;;5.20;4.70;;;4.30;98.20;;;;;;5115921;28;20043;-70
2021/05/07 03:18:28;;;;;;;4.55;4.07;;;4.40;98.30;;;;;;5116089;28;20094;-70
2021/05/07 03:20:55;;;;;;;4.18;3.35;;;4.40;98.20;;;;;;5116826;28;20417;-70
2021/05/07 03:23:21;;;;;;;4.20;3.30;;;4.40;98.20;;;;;;5116058;28;20072;-70
2021/05/07 03:25:47;;;;;;;4.43;3.25;;;4.40;98.20;;;;;;5115687;28;20032;-70
2021/05/07 03:28:14;;;;;;;3.85;2.92;;;4.50;98.20;;;;;;5116040;28;20044;-70
2021/05/07 03:30:40;;;;;;;3.72;2.50;;;4.40;98.20;;;;;;5115984;28;20049;-70
2021/05/07 03:33:07;;;;;;;6.05;2.42;;;4.50;98.20;;;;;;5116184;28;20075;-70
2021/05/07 03:35:34;;;;;;;4.38;2.30;;;4.50;98.20;;;;;;5115490;28;20046;-70
2021/05/07 03:38:01;;;;;;;2.65;1.55;;;4.50;98.20;;;;;;5116562;28;20046;-70
2021/05/07 03:40:27;;;;;;;3.58;2.13;;;4.50;98.10;;;;;;5115536;28;20046;-70
2021/05/07 03:42:53;;;;;;;3.65;2.05;;;4.50;98.10;;;;;;5115776;28;20454;-70
2021/05/07 03:45:19;;;;;;;4.55;1.85;;;4.50;98.10;;;;;;5115544;28;20031;-70
2021/05/07 03:47:45;;;;;;;2.85;1.75;;;4.50;98.10;;;;;;5115581;28;20066;-70
2021/05/07 03:50:11;;;;;;;3.70;1.60;;;4.50;98.10;;;;;;5115394;27;20499;-70
2021/05/07 03:52:38;;;;;;;2.85;1.67;;;4.50;97.90;;;;;;5115735;28;20046;-70
2021/05/07 03:55:06;;;;;;;3.17;1.85;;;4.50;98.10;;;;;;5115504;28;20084;-70
2021/05/07 03:57:32;;;;;;;4.80;2.08;;;4.50;98.10;;;;;;5115310;28;20080;-70
2021/05/07 03:59:58;;;;;;;3.50;1.80;;;4.60;98.20;;;;;;5115847;28;20050;-70
2021/05/07 04:02:24;;;;;;;3.20;1.70;;;4.50;98.20;;;;;;5115386;28;20392;-70
2021/05/07 04:04:54;;;;;;;2.65;1.83;;;4.60;98.30;;;;;;5115264;28;20039;-70
2021/05/07 04:07:20;;;;;;;3.75;1.90;;;4.50;98.50;;;;;;5114914;28;20035;-70
2021/05/07 04:09:57;;;;;;;3.72;2.13;;;4.60;98.60;;;;;;5115124;28;20092;-70
2021/05/07 04:15:02;;;;;;;2.65;1.88;;;4.60;98.70;;;;;;5114785;28;20042;-70
2021/05/07 04:17:27;;;;;;;5.18;2.22;;;4.60;98.60;;;;;;5114926;27;20046;-70
2021/05/07 04:19:53;;;;;;;2.20;1.63;;;4.70;98.60;;;;;;5115488;28;20531;-70
2021/05/07 04:22:19;;;;;;;3.38;1.50;;;4.60;98.60;;;;;;5114682;28;20039;-70
2021/05/07 04:24:44;;;;;;;5.05;2.15;;;4.70;98.70;;;;;;5114680;28;20039;-70
2021/05/07 04:27:11;;;;;;;4.55;2.22;;;4.70;98.60;;;;;;5115050;28;20471;-70
2021/05/07 04:29:37;;;;;;;3.80;1.63;;;4.70;98.50;;;;;;5114776;27;20040;-70
2021/05/07 04:32:03;;;;;;;5.07;2.42;;;4.70;98.40;;;;;;5113489;28;20514;-70
2021/05/07 04:34:29;;;;;;;3.72;2.58;;;4.70;98.30;;;;;;5114859;28;20069;-70
2021/05/07 04:36:55;;;;;;;3.30;1.90;;;4.60;98.30;;;;;;5114701;28;20051;-70
2021/05/07 04:39:21;;;;;;;2.75;2.25;;;4.70;98.50;;;;;;5114613;28;20041;-70
2021/05/07 04:41:47;;;;;;;4.75;2.47;;;4.70;98.50;;;;;;5115066;28;20533;-70
2021/05/07 04:44:12;;;;;;;4.85;3.13;;;4.70;98.70;;;;;;5114900;28;20039;-70
2021/05/07 04:46:38;;;;;;;4.95;2.90;;;4.70;98.60;;;;;;5114017;28;20122;-70
2021/05/07 04:49:04;;;;;;;3.33;2.10;;;4.70;98.60;;;;;;5114529;28;20035;-70
2021/05/07 04:51:30;;;;;;;4.10;2.13;;;4.70;98.60;;;;;;5114310;28;20043;-70
2021/05/07 04:53:58;;;;;;;2.78;1.75;;;4.70;98.60;;;;;;5114641;28;20040;-70
2021/05/07 04:56:24;;;;;;;5.55;2.20;;;4.70;98.50;;;;;;5114140;28;20120;-70
2021/05/07 04:58:49;;;;;;;3.65;1.80;;;4.70;98.40;;;;;;5114150;28;20039;-70
2021/05/07 05:01:15;;;;;;;3.10;1.35;;;4.70;98.30;;;;;;5114711;28;20444;-70
2021/05/07 05:03:40;;;;;;;3.65;1.70;;;4.70;98.10;;;;;;5114748;28;20031;-70
2021/05/07 05:06:06;;;;;;;2.45;1.60;;;4.70;98.00;;;;;;5113935;28;20055;-70
2021/05/07 05:08:32;;;;;;;2.30;1.42;;;4.70;98.30;;;;;;5114190;28;20031;-70
2021/05/07 05:10:58;;;;;;;2.35;1.50;;;4.70;98.00;;;;;;5113897;28;20045;-70
2021/05/07 05:13:25;;;;;;;2.03;1.52;;;4.70;98.00;;;;;;5114097;28;20036;-70
2021/05/07 05:15:52;;;;;;;2.28;1.85;;;4.70;98.10;;;;;;5113630;28;20036;-70
2021/05/07 05:18:33;;;;;;;3.35;1.80;;;4.70;98.10;;;;;;5113947;28;20036;-70
2021/05/07 05:21:04;;;;;;;3.05;1.50;;;4.80;98.20;;;;;;5113881;28;20534;-70
2021/05/07 05:23:31;;;;;;;2.38;1.20;;;4.80;98.00;;;;;;5113980;28;20038;-70
2021/05/07 05:25:58;;;;;;;2.35;1.25;;;4.80;97.90;;;;;;5113657;28;20039;-70
2021/05/07 05:28:24;;;;;;;2.17;1.42;;;5.00;97.80;;;;;;5113829;28;20043;-70
2021/05/07 05:30:51;;;;;;;2.00;1.30;;;5.40;97.90;;;;;;5114223;28;20483;-70
2021/05/07 05:33:17;;;;;;;2.72;1.25;;;5.80;97.50;;;;;;5113431;28;20071;-70
2021/05/07 05:35:45;;;;;;;2.75;1.33;;;6.00;96.80;;;;;;5113802;28;20126;-70
2021/05/07 05:38:12;;;;;;;1.60;0.98;;;6.40;96.30;;;;;;5113673;28;20043;-70
2021/05/07 05:40:38;;;;;;;1.33;0.88;;;6.60;95.60;;;;;;5113935;28;20392;-70
2021/05/07 05:43:04;;;;;;;1.90;1.10;;;7.00;95.30;;;;;;5114502;28;20130;-70
2021/05/07 05:45:31;;;;;;;4.05;1.10;;;7.30;95.00;;;;;;5113406;28;20036;-70
2021/05/07 05:48:09;;;;;;;3.60;1.35;;;7.50;94.50;;;;;;5113694;28;20039;-70
2021/05/07 05:50:36;;;;;;;1.90;0.88;;;7.90;94.00;;;;;;5112579;28;20043;-70
2021/05/07 05:53:02;;;;;;;2.38;1.20;;;8.10;93.50;;;;;;5113525;28;20039;-70
2021/05/07 05:55:28;;;;;;;1.92;1.17;;;8.20;92.50;;;;;;5113529;28;20394;-70
2021/05/07 05:57:54;;;;;;;2.50;1.42;;;8.40;92.60;;;;;;5113349;28;20031;-70
2021/05/07 06:00:22;;;;;;;1.40;0.90;;;8.60;92.30;;;;;;5113534;28;20043;-70
2021/05/07 06:02:47;;;;;;;1.60;1.08;;;9.00;91.50;;;;;;5113436;28;20436;-70
2021/05/07 06:05:14;;;;;;;1.40;0.90;;;9.20;91.30;;;;;;5113430;28;20161;-70
2021/05/07 06:07:41;;;;;;;3.45;1.15;;;9.60;91.10;;;;;;5113398;28;20036;-70
2021/05/07 06:10:10;;;;;;;1.02;0.68;;;9.80;91.00;;;;;;5113551;28;20043;-70
2021/05/07 06:12:36;;;;;;;2.08;0.70;;;9.70;90.30;;;;;;5113488;28;20128;-70
2021/05/07 06:15:02;;;;;;;1.30;0.70;;;9.70;89.50;;;;;;5113077;28;20467;-70
2021/05/07 06:17:27;;;;;;;1.48;0.70;;;9.90;89.30;;;;;;5113573;28;20075;-70
2021/05/07 06:19:53;;;;;;;1.08;0.60;;;9.90;87.60;;;;;;5113370;28;20080;-70
2021/05/07 06:22:19;;;;;;;1.42;0.80;;;10.00;86.90;;;;;;5113922;28;20044;-70
2021/05/07 06:24:45;;;;;;;2.65;1.00;;;10.10;86.00;;;;;;5113284;28;20077;-70
2021/05/07 06:27:12;;;;;;;5.63;1.30;;;10.10;85.10;;;;;;5113248;28;20039;-70
2021/05/07 06:29:37;;;;;;;2.63;1.30;;;10.10;86.90;;;;;;5113232;28;20039;-70
2021/05/07 06:32:04;;;;;;;2.47;1.33;;;10.20;87.20;;;;;;5113614;28;20044;-70
2021/05/07 06:34:29;;;;;;;3.50;1.20;;;10.30;87.00;;;;;;5112936;28;20043;-71
2021/05/07 06:36:55;;;;;;;3.15;1.33;;;10.10;85.80;;;;;;5113216;28;20039;-70
2021/05/07 06:39:21;;;;;;;1.92;1.23;;;10.40;86.30;;;;;;5113097;28;20062;-70
2021/05/07 06:41:46;;;;;;;4.13;1.00;;;10.40;85.80;;;;;;5113318;28;20066;-70
2021/05/07 06:44:12;;;;;;;3.10;1.80;;;10.60;85.60;;;;;;5113283;28;20040;-70
2021/05/07 06:46:38;;;;;;;2.85;1.40;;;10.60;85.60;;;;;;5115301;28;20035;-70
2021/05/07 06:49:04;;;;;;;2.72;1.52;;;10.60;84.30;;;;;;5117194;28;20040;-70
2021/05/07 06:51:29;;;;;;;2.85;1.50;;;10.70;85.00;;;;;;5116604;28;20081;-70
2021/05/07 06:53:55;;;;;;;4.20;1.58;;;10.70;84.90;;;;;;5117346;28;20066;-70
2021/05/07 06:56:21;;;;;;;3.83;1.48;;;11.00;85.40;;;;;;5116341;28;20031;-70
2021/05/07 06:58:50;;;;;;;1.73;1.30;;;11.20;85.40;;;;;;5116723;28;20066;-70
2021/05/07 07:01:16;;;;;;;3.33;1.40;;;11.20;85.70;;;;;;5116773;28;20097;-70
2021/05/07 07:03:42;;;;;;;4.82;1.50;;;11.20;85.10;;;;;;5116916;28;20472;-70
2021/05/07 07:06:08;;;;;;;2.90;1.25;;;11.20;84.50;;;;;;5116216;28;20066;-70
2021/05/07 07:08:34;;;;;;;3.85;1.33;;;11.40;84.80;;;;;;5116334;28;20118;-70
2021/05/07 07:11:00;;;;;;;2.38;1.83;;;11.20;83.70;;;;;;5116259;28;20613;-70
2021/05/07 07:13:28;;;;;;;4.05;1.83;;;11.30;84.50;;;;;;5116341;28;20040;-70
2021/05/07 07:15:54;;;;;;;7.82;2.15;;;11.30;82.50;;;;;;5116313;28;20132;-70
2021/05/07 07:18:21;;;;;;;2.25;1.30;;;11.20;82.70;;;;;;5116144;28;20507;-71
2021/05/07 07:20:47;;;;;;;2.38;1.55;;;11.30;82.50;;;;;;5116101;28;20047;-71
2021/05/07 07:23:14;;;;;;;2.80;1.15;;;11.30;83.00;;;;;;5116099;28;20505;-71
2021/05/07 07:25:40;;;;;;;2.42;1.30;;;11.40;82.40;;;;;;5115872;28;20040;-71
2021/05/07 07:28:07;;;;;;;2.28;1.00;;;11.40;81.20;;;;;;5116257;28;20031;-71
2021/05/07 07:30:32;;;;;;;3.83;1.38;;;11.90;82.10;;;;;;5116253;28;20040;-71
2021/05/07 07:33:00;;;;;;;4.53;1.52;;;12.30;81.70;;;;;;5116223;28;20043;-71
2021/05/07 07:35:26;;;;;;;2.40;1.30;;;12.20;80.40;;;;;;5115529;28;20392;-71
2021/05/07 07:37:51;;;;;;;3.90;1.30;;;12.30;80.30;;;;;;5115808;28;20038;-71
2021/05/07 07:40:17;;;;;;;2.33;1.25;;;12.50;79.40;;;;;;5116112;28;20478;-71
2021/05/07 07:42:43;;;;;;;4.20;1.20;;;12.70;79.50;;;;;;5116149;27;20181;-71
2021/05/07 07:45:11;;;;;;;3.42;1.50;;;12.50;79.20;;;;;;5115405;28;20035;-71
2021/05/07 07:47:36;;;;;;;2.25;1.75;;;12.50;76.40;;;;;;5115719;28;20046;-71
2021/05/07 07:50:04;;;;;;;4.93;1.40;;;12.50;77.60;;;;;;5115695;28;20107;-71
2021/05/07 07:52:32;;;;;;;3.05;1.10;;;12.40;76.80;;;;;;5115753;28;20047;-71
2021/05/07 07:54:59;;;;;;;2.30;1.10;;;12.40;77.50;;;;;;5115250;28;20035;-71
2021/05/07 07:57:24;;;;;;;2.92;1.20;;;12.40;77.50;;;;;;5115131;28;20036;-71
2021/05/07 07:59:50;;;;;;;3.70;1.30;;;12.40;76.00;;;;;;5115526;28;20032;-71
2021/05/07 08:02:16;;;;;;;6.22;1.67;;;12.60;76.20;;;;;;5115175;28;20453;-71
2021/05/07 08:04:41;;;;;;;3.03;1.27;;;12.10;73.90;;;;;;5114892;28;20032;-71
2021/05/07 08:07:08;;;;;;;4.18;1.83;;;11.70;75.70;;;;;;5115268;28;20038;-71
2021/05/07 08:09:35;;;;;;;3.70;1.38;;;12.00;78.00;;;;;;5115638;28;20114;-71
2021/05/07 08:12:00;;;;;;;3.70;1.30;;;12.10;75.30;;;;;;5114326;28;20040;-71
2021/05/07 08:14:26;;;;;;;2.03;1.10;;;12.20;74.50;;;;;;5115284;28;20463;-71
2021/05/07 08:16:52;;;;;;;4.15;1.92;;;12.50;73.70;;;;;;5115424;28;20035;-71
2021/05/07 08:19:18;;;;;;;6.40;1.60;;;12.60;76.30;;;;;;5114370;28;20357;-71
2021/05/07 08:21:43;;;;;;;3.90;1.63;;;12.70;73.90;;;;;;5115080;28;20130;-70
2021/05/07 08:24:10;;;;;;;3.13;1.63;;;13.00;75.50;;;;;;5115099;28;20120;-71
2021/05/07 08:26:36;;;;;;;3.58;1.40;;;12.20;74.00;;;;;;5114415;28;20122;-71
2021/05/07 08:29:03;;;;;;;2.00;1.15;;;12.20;74.40;;;;;;5115180;28;20035;-71
2021/05/07 08:31:29;;;;;;;3.58;1.52;;;12.40;74.40;;;;;;5115127;28;20039;-70
2021/05/07 08:33:55;;;;;;;3.85;1.52;;;12.20;75.30;;;;;;5114604;28;20488;-71
2021/05/07 08:36:21;;;;;;;2.95;1.50;;;12.60;75.00;;;;;;5114240;28;20051;-71
2021/05/07 08:38:46;;;;;;;2.28;1.20;;;12.40;74.60;;;;;;5114567;28;20035;-71
2021/05/07 08:41:13;;;;;;;3.00;1.70;;;12.00;75.40;;;;;;5114979;28;20101;-70
2021/05/07 08:43:38;;;;;;;3.22;1.40;;;11.40;75.10;;;;;;5115131;28;20035;-71
2021/05/07 08:46:07;;;;;;;7.53;2.05;;;10.90;74.60;;;;;;5114733;28;20043;-71
2021/05/07 08:48:34;;;;;;;5.95;1.67;;;11.50;76.00;;;;;;5114861;28;20070;-70
2021/05/07 08:51:01;;;;;;;24.70;4.97;;;11.60;75.10;;;;;;5114390;28;20190;-70
2021/05/07 08:53:27;;;;;;;2.28;1.63;;;11.90;75.50;;;;;;5114643;28;20483;-71
2021/05/07 08:55:53;;;;;;;5.03;1.80;;;12.40;74.60;;;;;;5114303;28;20040;-71
2021/05/07 08:58:19;;;;;;;4.03;1.50;;;12.60;73.80;;;;;;5114765;28;20129;-71
2021/05/07 09:00:45;;;;;;;2.08;1.35;;;12.60;73.30;;;;;;5114765;28;20038;-71
2021/05/07 09:03:16;;;;;;;3.20;1.60;;;12.50;73.90;;;;;;5113681;28;20114;-71
2021/05/07 09:05:42;;;;;;;4.40;1.63;;;12.50;73.70;;;;;;5113851;28;20076;-71
2021/05/07 09:08:08;;;;;;;68.03;11.65;;;12.50;71.90;;;;;;5113075;28;20043;-71
2021/05/07 09:10:45;;;;;;;2.25;1.15;;;12.30;70.30;;;;;;5113940;28;20092;-71
2021/05/07 09:13:20;;;;;;;2.30;1.20;;;12.00;69.20;;;;;;5112757;28;20047;-71
2021/05/07 09:15:48;;;;;;;4.10;1.35;;;12.40;71.00;;;;;;5113795;28;20043;-71
2021/05/07 09:18:17;;;;;;;4.60;1.23;;;12.60;69.70;;;;;;5113975;28;20379;-71
2021/05/07 09:20:47;;;;;;;1.90;0.90;;;12.50;69.40;;;;;;5114140;28;20046;-70
2021/05/07 09:23:13;;;;;;;1.92;0.82;;;11.80;67.30;;;;;;5129507;27;20382;-71
2021/05/07 09:25:45;;;;;;;3.22;1.15;;;11.50;67.40;;;;;;5134083;27;20035;-71
2021/05/07 09:28:14;;;;;;;0.98;0.80;;;11.50;69.90;;;;;;5134353;27;20106;-71
2021/05/07 09:30:41;;;;;;;1.38;0.70;;;11.90;70.80;;;;;;5134264;27;20039;-71
2021/05/07 09:33:11;;;;;;;1.75;1.00;;;12.10;69.80;;;;;;5134765;27;20540;-71
2021/05/07 09:35:39;;;;;;;2.47;0.75;;;12.30;70.40;;;;;;5134186;27;20513;-71
2021/05/07 09:38:16;;;;;;;1.67;0.85;;;12.50;68.10;;;;;;5134815;27;20093;-70
2021/05/07 09:40:42;;;;;;;1.63;0.80;;;12.60;67.00;;;;;;5134925;27;20035;-71
2021/05/07 09:43:13;;;;;;;1.58;0.70;;;12.60;66.50;;;;;;5134337;27;20106;-71
2021/05/07 09:45:41;;;;;;;3.92;1.00;;;12.20;66.30;;;;;;5134175;27;20123;-71
2021/05/07 09:48:28;;;;;;;1.90;0.80;;;11.90;65.70;;;;;;5134317;27;20071;-70
2021/05/07 09:51:01;;;;;;;1.10;0.60;;;11.90;67.50;;;;;;5134027;27;20122;-70
2021/05/07 09:53:30;;;;;;;;;;;11.70;65.90;;;;;;5134577;27;20045;-71
2021/05/07 09:55:59;;;;;;;1.63;0.60;;;11.80;63.00;;;;;;5133782;27;19919;-70
2021/05/07 09:58:25;;;;;;;2.70;0.75;;;12.00;66.50;;;;;;5134739;27;20039;-71
2021/05/07 10:00:51;;;;;;;1.77;0.85;;;12.10;63.60;;;;;;5134026;27;20074;-71
2021/05/07 10:03:17;;;;;;;1.35;0.45;;;12.10;65.30;;;;;;5134721;27;20059;-71
2021/05/07 10:05:42;;;;;;;2.25;0.63;;;11.60;65.00;;;;;;5133724;27;20088;-71
2021/05/07 10:08:08;;;;;;;1.65;0.63;;;11.60;67.40;;;;;;5133811;27;20088;-71
2021/05/07 10:10:41;;;;;;;1.33;0.90;;;11.90;67.00;;;;;;5133907;27;20046;-71
2021/05/07 10:13:13;;;;;;;1.58;1.00;;;12.10;66.00;;;;;;5133995;27;20035;-71
2021/05/07 10:15:41;;;;;;;2.73;0.70;;;12.20;65.80;;;;;;5133817;27;20122;-71
2021/05/07 10:18:11;;;;;;;0.88;0.40;;;12.20;65.10;;;;;;5134439;27;20114;-70
2021/05/07 10:20:41;;;;;;;4.97;1.27;;;12.30;62.80;;;;;;5137766;27;20043;-71
2021/05/07 10:23:19;;;;;;;0.93;0.57;;;12.30;64.60;;;;;;5138495;27;20035;-71
2021/05/07 10:26:08;;;;;;;2.15;0.50;;;12.00;65.60;;;;;;5137847;27;20092;-71
2021/05/07 10:28:46;;;;;;;0.82;0.50;;;11.70;64.80;;;;;;5137686;27;20031;-71
2021/05/07 10:31:14;;;;;;;2.05;0.85;;;11.80;65.20;;;;;;5137654;27;20035;-71
2021/05/07 10:33:43;;;;;;;2.33;0.60;;;11.90;64.90;;;;;;5137988;27;20043;-71
2021/05/07 10:36:09;;;;;;;1.85;0.82;;;12.10;66.60;;;;;;5137259;27;20047;-71
2021/05/07 10:38:46;;;;;;;1.75;0.50;;;12.30;66.80;;;;;;5137495;27;20039;-71
2021/05/07 10:41:12;;;;;;;2.08;0.57;;;12.40;66.50;;;;;;5137402;27;20043;-71
2021/05/07 10:43:39;;;;;;;2.92;0.73;;;12.10;63.90;;;;;;5137488;27;20473;-71
2021/05/07 10:46:06;;;;;;;1.60;0.65;;;11.90;63.20;;;;;;5137498;27;20035;-71
2021/05/07 10:48:32;;;;;;;0.82;0.38;;;11.60;63.50;;;;;;5136465;27;20031;-71
2021/05/07 10:51:04;;;;;;;1.20;0.63;;;11.30;63.60;;;;;;5137647;27;20482;-71
2021/05/07 10:53:37;;;;;;;1.83;0.60;;;11.40;65.60;;;;;;5137194;27;20043;-69
2021/05/07 10:56:23;;;;;;;0.85;0.43;;;11.50;63.30;;;;;;5136911;27;20547;-70
2021/05/07 10:58:53;;;;;;;1.83;0.45;;;11.80;66.00;;;;;;5137539;27;20035;-70
2021/05/07 11:01:26;;;;;;;0.98;0.45;;;12.00;64.10;;;;;;5137506;27;20043;-70
2021/05/07 11:04:12;;;;;;;0.88;0.63;;;12.10;64.50;;;;;;5137622;27;20038;-70
2021/05/07 11:06:41;;;;;;;1.30;0.80;;;11.80;63.90;;;;;;5136451;27;20085;-70
2021/05/07 11:09:17;;;;;;;3.15;0.95;;;11.40;67.10;;;;;;5137088;27;20490;-70
2021/05/07 11:11:45;;;;;;;1.65;1.13;;;11.20;69.20;;;;;;5137471;27;20028;-70
2021/05/07 11:14:16;;;;;;;1.58;0.77;;;11.20;70.50;;;;;;5135925;27;20436;-69
2021/05/07 11:16:44;;;;;;;1.58;0.60;;;11.40;70.80;;;;;;5136492;27;20076;-70
2021/05/07 11:19:43;;;;;;;2.22;0.70;;;11.60;69.00;;;;;;5135683;27;20118;-70
2021/05/07 11:22:09;;;;;;;2.45;1.33;;;11.70;67.60;;;;;;5114003;27;20043;-70
2021/05/07 11:24:42;;;;;;;2.60;0.70;;;11.90;69.60;;;;;;5136347;27;20475;-70
2021/05/07 11:27:25;;;;;;;;;;;12.10;69.80;;;;;;5137703;27;20374;-70
2021/05/07 11:29:52;;;;;;;1.40;0.82;;;12.00;65.70;;;;;;5136489;27;19941;-70
2021/05/07 11:32:23;;;;;;;1.20;0.70;;;11.80;65.80;;;;;;5135682;27;20107;-70
2021/05/07 11:34:57;;;;;;;1.85;0.60;;;11.50;65.40;;;;;;5136638;27;20093;-70
2021/05/07 11:37:26;;;;;;;4.05;0.90;;;11.20;67.40;;;;;;5136294;27;20043;-70
2021/05/07 11:40:07;;;;;;;3.80;1.20;;;11.10;69.10;;;;;;5136344;27;20043;-70
2021/05/07 11:42:46;;;;;;;6.30;1.30;;;11.40;70.00;;;;;;5136549;27;20031;-70
2021/05/07 11:45:24;;;;;;;14.70;1.88;;;11.60;67.30;;;;;;5135141;27;20038;-70
2021/05/07 11:47:50;;;;;;;3.15;0.90;;;11.80;66.10;;;;;;5136721;27;20112;-70
2021/05/07 11:50:19;;;;;;;1.42;0.55;;;11.90;65.70;;;;;;5136017;27;20039;-70
2021/05/07 11:52:49;;;;;;;1.75;0.60;;;11.90;65.10;;;;;;5136254;27;20039;-70
2021/05/07 11:55:18;;;;;;;1.52;0.60;;;11.60;65.10;;;;;;5136018;27;20114;-70
2021/05/07 11:57:44;;;;;;;1.02;0.57;;;11.50;64.60;;;;;;5135700;27;20051;-69
2021/05/07 12:00:19;;;;;;;1.77;0.50;;;11.70;64.10;;;;;;5135892;27;20039;-70
2021/05/07 12:02:45;;;;;;;2.25;1.13;;;11.50;62.90;;;;;;5134608;27;20040;-70
2021/05/07 12:05:11;;;;;;;2.42;0.75;;;11.50;66.70;;;;;;5135501;27;20032;-70
2021/05/07 12:07:41;;;;;;;2.80;0.50;;;11.40;69.20;;;;;;5135449;27;20461;-70
2021/05/07 12:10:07;;;;;;;1.20;0.60;;;11.60;69.70;;;;;;5135810;27;20035;-70
2021/05/07 12:12:42;;;;;;;3.80;0.95;;;11.70;67.70;;;;;;5135801;27;20487;-70
2021/05/07 12:15:13;;;;;;;2.65;0.60;;;11.80;69.80;;;;;;5135727;27;20039;-70
2021/05/07 12:17:43;;;;;;;2.05;0.70;;;11.70;66.80;;;;;;5136067;27;20043;-70
2021/05/07 12:20:12;;;;;;;5.70;1.77;;;11.90;67.90;;;;;;5134946;27;20031;-70
2021/05/07 12:22:38;;;;;;;3.72;0.50;;;12.00;68.00;;;;;;5136004;27;20035;-70
2021/05/07 12:25:17;;;;;;;2.33;0.75;;;12.10;64.60;;;;;;5135002;27;20035;-70
2021/05/07 12:27:45;;;;;;;1.77;0.73;;;12.20;64.70;;;;;;5134996;27;20047;-69
2021/05/07 12:30:39;;;;;;;1.45;0.88;;;12.40;67.50;;;;;;5120658;27;20042;-70
2021/05/07 12:33:08;;;;;;;0.82;0.50;;;12.60;64.90;;;;;;5112538;28;20055;-70
2021/05/07 12:35:36;;;;;;;1.50;0.65;;;12.20;62.70;;;;;;5113887;28;20036;-70
2021/05/07 12:38:22;;;;;;;3.10;0.70;;;11.90;63.50;;;;;;5114757;28;20040;-70
2021/05/07 12:40:48;;;;;;;2.25;0.65;;;11.70;63.50;;;;;;5114835;28;20067;-70
2021/05/07 12:43:13;;;;;;;4.50;0.80;;;11.80;64.90;;;;;;5114937;27;20152;-70
2021/05/07 12:45:39;;;;;;;3.15;0.82;;;11.80;64.40;;;;;;5114276;28;20042;-70
2021/05/07 12:48:06;;;;;;;2.75;0.80;;;11.80;63.10;;;;;;5114363;28;20047;-70
2021/05/07 12:50:31;;;;;;;2.38;1.08;;;11.70;64.30;;;;;;5114426;28;20096;-70
2021/05/07 12:52:57;;;;;;;2.92;1.95;;;11.50;65.00;;;;;;5114822;28;20039;-70
2021/05/07 12:55:23;;;;;;;4.57;0.80;;;11.40;65.40;;;;;;5114361;28;20448;-70
2021/05/07 12:57:49;;;;;;;1.90;1.10;;;11.20;66.00;;;;;;5114914;28;20031;-70